Terminal Aerodrome Forecast
Issued by NWS

Home | Current Version | Previous Version | Graphics & Text | Print | Product List | Glossary On
Versions: 1 2 3 4 5 6 7 8 9 10 11 12 13 14 15 16 17 18 19 20 21 22 23 24 25 26 27 28 29 30 31 32 33 34 35 36
000
FTUS43 KPAH 280525
TAFOWB
TAF
KOWB 280525Z 2806/2906 25004KT P6SM VCTS FEW030 BKN080CB
      TEMPO 2807/2809 1 1/2SM SHRA BR BKN013 OVC030
     FM281200 35004KT P6SM BKN015
      TEMPO 2812/2814 4SM BR OVC013
     FM281400 36010KT P6SM SCT011 BKN030
     FM281900 01011G14KT P6SM BKN030
     FM290100 02006KT P6SM SKC=

USA.gov is the U.S. government's official web portal to all federal, state and local government web resources and services.